Pagina principale
METAR-TAF:

METAR-TAF

Aeroporti :

Aeroporto di Dušanbe

Dušanbe, Tagikistan

latitudine: 38-33N, longitudine: 068-47E, altezza: 803 m

Osservazione

Il bollettino è stato emesso 21 minuti fa, alle 23:00 UTC
Vento 2 kt da direzioni variabili
Temperature 25°C
Umidità 41%
Pressione 1003 hPa
Visibilità 10 km o più

METAR: UTDD 192300Z VRB01MPS 9999 NSC 25/11 Q1003 R09/D NOSIG RMK QFE684/0913

Ora: 04:21 (23:21 UTC)

Previsione

Il bollettino è stato emesso 2 ore e 21 minuti fa, alle 21:00 UTC
Previsione valida dal 19 alle 22 UTC al 20 alle 10 UTC
Vento 4 kt da direzioni variabili
Visibilità: 6000 m
Poco nuvoloso ad un'altezza di 6600 ft, Cumulonembo.
Nubi sparse ad un'altezza di 15000 ft

TAF: UTDD 192100Z 1922/2010 VRB02MPS 6000 FEW066CB SCT150

Osservazioni e previsioni meteorologiche di più di 4000 aeroporti (messaggi METAR e TAF).

Le stazioni disponibili sono rappresentate dai dischi gialli e rossi sulla carta.

Puntare il mouse per vedere il nome della stazione.

Clicca sopra per visualizzare le osservazioni e previsioni meteorologiche.

Per cambiare la mappa : fare clic sui pulsanti verdi con una croce nera per ingrandire, il pulsante verde con un trattino per diminuire, o sulla freccia verde per le mappe adiacenti.


METAR-TAF: